Flight Track Log - Related Links

Times and Time Zones

All times are in EDT time to prevent confusion due to time zone crossing. See the N449ND flight status page for this flight to view local times or setup timezone preferences in your user account.

Time Position Orientation Groundspeed Altitude Reporting Facility
EDT Latitude Longitude Course Direction KTS MPH feet Rate Location/Type
Tue 05:07:19 PM 26.8358 -81.3389 49° Northeast 92 106 3,600  Level Miami Center
Tue 05:08:21 PM 26.8564 -81.3075 54° Northeast 114 131 3,600  Level Miami Center
Tue 05:09:23 PM 26.8769 -81.2778 52° Northeast 119 137 3,600  Level Miami Center
Tue 05:10:25 PM 26.8986 -81.2481 51° Northeast 119 137 3,600  Level Miami Center
Tue 05:11:00 PM 26.7034 -81.5036 53° Northeast  Level FlightAware Approximate
Tue 05:11:28 PM 26.9167 -81.2175 56° Northeast 120 138 3,600  Level Miami Center
Tue 05:12:30 PM 26.9367 -81.1858 55° Northeast 116 133 3,500  Descending Miami Center
Tue 05:13:32 PM 26.9569 -81.1589 50° Northeast 116 133 3,600  Climbing Miami Center
Tue 05:14:34 PM 26.9789 -81.1303 49° Northeast 114 131 3,500  Descending Miami Center
Tue 05:15:37 PM 27.0000 -81.1000 52° Northeast 115 132 3,600 48 Climbing Miami Center
Tue 05:16:39 PM 27.0200 -81.0706 53° Northeast 121 139 3,600  Level Miami Center
Tue 05:17:41 PM 27.0400 -81.0400 54° Northeast 120 138 3,600  Level Miami Center
Tue 05:18:43 PM 27.0636 -81.0108 48° Northeast 120 138 3,600  Level Miami Center
Tue 05:19:45 PM 27.0856 -80.9808 51° Northeast 120 138 3,600  Level Miami Center
Tue 05:20:48 PM 27.1081 -80.9506 50° Northeast 121 139 3,600  Level Miami Center
Tue 05:21:50 PM 27.1294 -80.9203 52° Northeast 121 139 3,600 -48 Level Miami Center
Tue 05:22:52 PM 27.1497 -80.8889 54° Northeast 120 138 3,500  Descending Miami Center
Tue 05:23:54 PM 27.1708 -80.8581 52° Northeast 120 138 3,600 48 Climbing Miami Center
Tue 05:24:57 PM 27.1917 -80.8264 54° Northeast 120 138 3,600  Level Miami Center
Tue 05:25:59 PM 27.2125 -80.7964 52° Northeast 120 138 3,600 -48 Level Miami Center
Tue 05:27:01 PM 27.2308 -80.7683 54° Northeast 117 135 3,500 -48 Descending Miami Center
Tue 05:28:03 PM 27.2486 -80.7406 54° Northeast 107 123 3,500 48 Level Miami Center
Tue 05:29:05 PM 27.2669 -80.7144 52° Northeast 106 122 3,600  Climbing Miami Center
Tue 05:30:07 PM 27.2850 -80.6867 54° Northeast 104 120 3,500  Descending Miami Center
Tue 05:31:10 PM 27.3025 -80.6592 54° Northeast 104 120 3,600 48 Climbing Miami Center
Tue 05:32:12 PM 27.3208 -80.6322 53° Northeast 104 120 3,600  Level Miami Center
Tue 05:33:14 PM 27.3400 -80.6069 50° Northeast 104 120 3,600 -48 Level Miami Center
Tue 05:34:16 PM 27.3564 -80.5775 58° Northeast 105 121 3,500 -48 Descending Miami Center
Tue 05:35:18 PM 27.3786 -80.5536 44° Northeast 106 122 3,500  Level Miami Center
Tue 05:36:20 PM 27.4028 -80.5369 31° Northeast 106 122 3,500 -48 Level Miami Center
Tue 05:37:22 PM 27.4283 -80.5189 32° Northeast 102 117 3,400 -97 Descending Miami Center

Login

Don't have an account? Register now (free) for customized features, flight alerts, and more!